createdAt,value
2022-10-11T00:02:02.578Z,72.25
2022-10-11T00:04:29.417Z,72.19
2022-10-11T00:06:56.180Z,72.34
2022-10-11T00:09:22.851Z,72.32
2022-10-11T00:11:49.879Z,72.82
2022-10-11T00:14:16.935Z,72.70
2022-10-11T00:16:44.593Z,72.79
2022-10-11T00:19:11.989Z,72.19
2022-10-11T00:21:39.446Z,72.76
2022-10-11T00:24:06.661Z,73.02
2022-10-11T00:26:33.684Z,72.83
2022-10-11T00:29:00.297Z,72.83
2022-10-11T00:31:26.865Z,73.02
2022-10-11T00:33:55.037Z,73.08
2022-10-11T00:36:22.560Z,73.31
2022-10-11T00:38:49.553Z,73.40
2022-10-11T00:41:16.563Z,73.21
2022-10-11T00:43:44.078Z,73.36
2022-10-11T00:46:13.788Z,73.41
2022-10-11T00:48:46.083Z,73.50
2022-10-11T00:51:21.031Z,73.45
2022-10-11T00:53:50.953Z,73.48
2022-10-11T00:56:27.908Z,73.42
2022-10-11T00:58:56.542Z,73.85
2022-10-11T01:01:23.654Z,73.77
2022-10-11T01:03:50.340Z,73.77
2022-10-11T01:06:17.563Z,73.48
2022-10-11T01:08:44.656Z,73.70
2022-10-11T01:11:15.850Z,73.61
2022-10-11T01:14:02.071Z,73.63
2022-10-11T01:16:42.703Z,73.76
2022-10-11T01:19:24.768Z,73.57
2022-10-11T01:22:48.451Z,73.65
2022-10-11T01:25:36.443Z,73.83
2022-10-11T01:28:08.939Z,73.55
2022-10-11T01:30:37.203Z,73.86
2022-10-11T01:33:35.847Z,73.83
2022-10-11T01:36:27.866Z,73.72
2022-10-11T01:39:03.500Z,74.10
2022-10-11T01:41:39.339Z,73.93
2022-10-11T01:44:08.141Z,73.98
2022-10-11T01:46:36.683Z,73.98
2022-10-11T01:49:04.746Z,73.71
2022-10-11T01:51:35.083Z,73.84
2022-10-11T01:54:23.897Z,73.57
2022-10-11T01:56:56.432Z,73.61
2022-10-11T01:59:40.777Z,73.49
2022-10-11T02:02:32.333Z,73.33
2022-10-11T02:05:05.165Z,73.59
2022-10-11T02:07:36.162Z,73.23
2022-10-11T02:10:20.050Z,73.26
2022-10-11T02:12:54.178Z,73.35
2022-10-11T02:15:23.385Z,73.48
2022-10-11T02:17:55.541Z,73.38
2022-10-11T02:20:26.570Z,73.21
2022-10-11T02:22:59.266Z,73.23
2022-10-11T02:25:29.183Z,73.31
2022-10-11T02:27:59.536Z,73.47
2022-10-11T02:30:26.296Z,73.43
2022-10-11T02:32:54.873Z,73.21
2022-10-11T02:35:26.468Z,73.26
2022-10-11T02:38:05.789Z,73.32
2022-10-11T02:40:35.200Z,73.05
2022-10-11T02:43:08.063Z,73.14
2022-10-11T02:45:57.153Z,73.38
2022-10-11T02:48:27.622Z,73.17
2022-10-11T02:50:56.556Z,72.92
2022-10-11T02:53:24.654Z,73.18
2022-10-11T02:55:53.613Z,73.03
2022-10-11T02:58:20.906Z,72.99
2022-10-11T03:00:48.303Z,72.96
2022-10-11T03:03:15.872Z,73.05
2022-10-11T03:05:43.576Z,73.06
2022-10-11T03:08:13.322Z,73.14
2022-10-11T03:10:40.653Z,73.14
2022-10-11T03:13:07.991Z,73.01
2022-10-11T03:15:34.843Z,73.09
2022-10-11T03:18:01.688Z,73.02
2022-10-11T03:20:28.353Z,73.20
2022-10-11T03:22:55.002Z,73.38
2022-10-11T03:25:22.263Z,73.40
2022-10-11T03:27:48.915Z,73.40
2022-10-11T03:30:18.311Z,73.22
2022-10-11T03:32:45.767Z,73.19
2022-10-11T03:35:12.603Z,72.95
2022-10-11T03:37:39.214Z,72.90
2022-10-11T03:40:08.390Z,73.09
2022-10-11T03:42:35.967Z,72.87
2022-10-11T03:45:05.104Z,72.81
2022-10-11T03:47:32.260Z,72.86
2022-10-11T03:49:58.886Z,72.90
2022-10-11T03:52:25.516Z,73.01
2022-10-11T03:54:52.536Z,72.83
2022-10-11T03:57:19.417Z,72.81
2022-10-11T03:59:46.569Z,73.02
2022-10-11T04:02:13.322Z,73.02
2022-10-11T04:04:39.921Z,72.99
2022-10-11T04:07:06.975Z,72.78
2022-10-11T04:09:33.863Z,72.93
2022-10-11T04:12:01.242Z,72.95
2022-10-11T04:14:27.984Z,72.56
2022-10-11T04:16:58.349Z,72.61
2022-10-11T04:19:26.958Z,72.80
2022-10-11T04:21:53.608Z,72.73
2022-10-11T04:24:20.266Z,72.56
2022-10-11T04:26:46.894Z,72.98
2022-10-11T04:29:13.527Z,73.11
2022-10-11T04:31:40.221Z,73.31
2022-10-11T04:34:07.170Z,73.13
2022-10-11T04:36:34.117Z,73.39
2022-10-11T04:39:01.943Z,73.13
2022-10-11T04:41:29.539Z,73.54
2022-10-11T04:43:56.271Z,73.55
2022-10-11T04:46:23.466Z,73.55
2022-10-11T04:48:50.713Z,73.91
2022-10-11T04:51:18.373Z,73.95
2022-10-11T04:53:45.197Z,74.00
2022-10-11T04:56:12.290Z,74.22
2022-10-11T04:58:41.061Z,74.23
2022-10-11T05:01:08.340Z,74.21
2022-10-11T05:03:35.057Z,74.64
2022-10-11T05:06:05.627Z,74.92
2022-10-11T05:08:33.268Z,75.00
2022-10-11T05:11:02.645Z,75.31
2022-10-11T05:13:30.114Z,75.15
2022-10-11T05:15:57.229Z,75.44
2022-10-11T05:18:24.891Z,75.23
2022-10-11T05:21:15.340Z,75.38
2022-10-11T05:23:42.381Z,75.41
2022-10-11T05:26:09.520Z,75.48
2022-10-11T05:28:36.818Z,75.38
2022-10-11T05:31:03.942Z,75.63
2022-10-11T05:33:31.283Z,75.47
2022-10-11T05:35:58.167Z,75.74
2022-10-11T05:38:24.844Z,75.67
2022-10-11T05:40:52.279Z,75.70
2022-10-11T05:43:19.113Z,75.88
2022-10-11T05:45:46.560Z,76.02
2022-10-11T05:48:13.235Z,76.11
2022-10-11T05:50:40.018Z,76.11
2022-10-11T05:53:07.273Z,76.08
2022-10-11T05:55:39.161Z,76.30
2022-10-11T05:58:06.852Z,76.40
2022-10-11T06:00:36.949Z,76.32
2022-10-11T06:03:05.384Z,76.51
2022-10-11T06:05:32.269Z,76.38
2022-10-11T06:07:58.984Z,76.55
2022-10-11T06:10:26.189Z,76.69
2022-10-11T06:12:53.445Z,76.81
2022-10-11T06:15:20.187Z,76.88
2022-10-11T06:17:47.427Z,76.95
2022-10-11T06:20:14.879Z,77.02
2022-10-11T06:22:41.495Z,77.09
2022-10-11T06:25:08.419Z,77.30
2022-10-11T06:27:35.333Z,77.27
2022-10-11T06:30:01.925Z,77.40
2022-10-11T06:32:29.067Z,77.38
2022-10-11T06:34:55.707Z,77.61
2022-10-11T06:37:22.390Z,77.34
2022-10-11T06:39:50.372Z,77.33
2022-10-11T06:42:17.209Z,77.45
2022-10-11T06:44:43.954Z,77.49
2022-10-11T06:47:10.605Z,77.38
2022-10-11T06:49:37.697Z,77.50
2022-10-11T06:52:05.122Z,77.46
2022-10-11T06:54:31.967Z,77.54
2022-10-11T06:56:58.760Z,77.61
2022-10-11T06:59:25.468Z,77.53
2022-10-11T07:01:52.150Z,77.52
2022-10-11T07:04:18.910Z,77.59
2022-10-11T07:06:45.506Z,77.36
2022-10-11T07:09:12.217Z,77.45
2022-10-11T07:11:38.955Z,77.26
2022-10-11T07:14:07.882Z,77.22
2022-10-11T07:16:36.505Z,77.19
2022-10-11T07:19:05.049Z,77.22
2022-10-11T07:21:33.880Z,77.13
2022-10-11T07:24:01.380Z,76.84
2022-10-11T07:26:32.524Z,76.66
2022-10-11T07:29:04.373Z,76.32
2022-10-11T07:31:31.425Z,76.19
2022-10-11T07:33:58.033Z,76.14
2022-10-11T07:36:25.655Z,76.02
2022-10-11T07:38:52.740Z,75.76
2022-10-11T07:41:19.899Z,75.70
2022-10-11T07:43:47.969Z,75.36
2022-10-11T07:46:14.722Z,75.31
2022-10-11T07:48:41.451Z,75.32
2022-10-11T07:51:11.269Z,75.22
2022-10-11T07:53:42.455Z,74.93
2022-10-11T07:56:12.556Z,74.39
2022-10-11T07:58:40.574Z,74.07
2022-10-11T08:01:09.255Z,73.58
2022-10-11T08:03:36.484Z,73.42
2022-10-11T08:06:08.306Z,72.97
2022-10-11T08:08:36.556Z,72.43
2022-10-11T08:11:03.249Z,72.06
2022-10-11T08:13:30.912Z,71.53
2022-10-11T08:15:58.318Z,71.12
2022-10-11T08:18:25.259Z,70.92
2022-10-11T08:20:52.258Z,70.75
2022-10-11T08:23:19.787Z,70.41
2022-10-11T08:25:48.240Z,69.57
2022-10-11T08:28:17.802Z,69.21
2022-10-11T08:30:53.921Z,68.71
2022-10-11T08:33:23.006Z,67.97
2022-10-11T08:35:50.448Z,68.01
2022-10-11T08:38:18.463Z,67.01
2022-10-11T08:40:55.263Z,66.88
2022-10-11T08:43:34.337Z,66.69
2022-10-11T08:46:03.267Z,65.85
2022-10-11T08:48:30.067Z,65.85
2022-10-11T08:50:57.675Z,64.88
2022-10-11T08:53:40.713Z,64.32
2022-10-11T08:56:09.916Z,63.71
2022-10-11T08:58:47.011Z,62.98
2022-10-11T09:01:18.915Z,62.40
2022-10-11T09:03:48.067Z,61.88
2022-10-11T09:06:23.661Z,61.87
2022-10-11T09:09:15.011Z,61.57
2022-10-11T09:11:52.371Z,61.22
2022-10-11T09:14:24.592Z,60.84
2022-10-11T09:17:22.004Z,60.19
2022-10-11T09:20:07.746Z,59.56
2022-10-11T09:22:56.172Z,59.17
2022-10-11T09:25:53.297Z,58.80
2022-10-11T09:28:31.069Z,58.12
2022-10-11T09:30:58.912Z,57.89
2022-10-11T09:33:36.970Z,57.26
2022-10-11T09:36:16.685Z,57.15
2022-10-11T09:39:06.865Z,56.79
2022-10-11T09:41:41.586Z,56.86
2022-10-11T09:44:12.598Z,56.98
2022-10-11T09:46:42.456Z,56.46
2022-10-11T09:49:16.061Z,55.90
2022-10-11T09:51:47.451Z,56.07
2022-10-11T09:54:14.137Z,55.59
2022-10-11T09:56:45.745Z,55.15
2022-10-11T09:59:15.247Z,54.91
2022-10-11T10:01:41.950Z,54.85
2022-10-11T10:04:14.987Z,54.71
2022-10-11T10:06:41.688Z,54.71
2022-10-11T10:09:30.540Z,54.69
2022-10-11T10:11:58.326Z,54.78
2022-10-11T10:14:28.380Z,54.93
2022-10-11T10:17:04.806Z,55.10
2022-10-11T10:19:53.088Z,55.02
2022-10-11T10:22:30.291Z,55.32
2022-10-11T10:25:00.369Z,55.26
2022-10-11T10:27:29.825Z,55.19
2022-10-11T10:30:10.314Z,55.25
2022-10-11T10:32:55.711Z,55.49
2022-10-11T10:35:42.547Z,55.27
2022-10-11T10:38:25.527Z,55.56
2022-10-11T10:40:58.972Z,55.79
2022-10-11T10:43:29.993Z,55.61
2022-10-11T10:46:28.655Z,55.47
2022-10-11T10:52:37.633Z,55.48
2022-10-11T10:55:33.407Z,55.51
2022-10-11T10:58:15.049Z,55.32
2022-10-11T11:00:48.564Z,55.63
2022-10-11T11:03:50.718Z,55.88
2022-10-11T11:06:38.019Z,56.00
2022-10-11T11:09:07.665Z,56.06
2022-10-11T11:11:56.072Z,56.10
2022-10-11T11:15:00.221Z,56.11
2022-10-11T11:17:41.732Z,56.23
2022-10-11T11:20:11.282Z,56.10
2022-10-11T11:23:05.482Z,56.54
2022-10-11T11:25:52.633Z,56.35
2022-10-11T11:28:28.020Z,56.47
2022-10-11T11:31:32.094Z,56.14
2022-10-11T11:34:20.343Z,56.25
2022-10-11T11:36:49.851Z,56.09
2022-10-11T11:39:24.132Z,56.08
2022-10-11T11:41:58.075Z,56.20
2022-10-11T11:44:42.582Z,55.95
2022-10-11T11:47:34.033Z,55.68
2022-10-11T11:50:27.309Z,55.56
2022-10-11T11:53:01.169Z,55.29
2022-10-11T11:55:36.649Z,55.22
2022-10-11T11:58:09.353Z,55.62
2022-10-11T12:01:05.283Z,55.15
2022-10-11T12:03:41.596Z,55.25
2022-10-11T12:06:17.161Z,54.98
2022-10-11T12:08:48.628Z,54.70
2022-10-11T12:11:26.333Z,54.64
2022-10-11T12:13:55.037Z,54.86
2022-10-11T12:16:22.853Z,54.38
2022-10-11T12:19:02.977Z,54.22
2022-10-11T12:21:40.997Z,54.53
2022-10-11T12:24:20.390Z,54.33
2022-10-11T12:26:49.184Z,53.95
2022-10-11T12:29:19.093Z,53.57
2022-10-11T12:31:49.722Z,53.24
2022-10-11T12:37:33.450Z,52.91
2022-10-11T12:40:00.393Z,53.10
2022-10-11T12:42:35.434Z,53.11
2022-10-11T12:45:11.219Z,52.69
2022-10-11T12:47:53.611Z,52.30
2022-10-11T12:50:27.595Z,52.64
2022-10-11T12:53:09.959Z,52.81
2022-10-11T12:55:46.965Z,52.78
2022-10-11T12:58:26.555Z,52.64
2022-10-11T13:00:55.166Z,53.13
2022-10-11T13:03:41.056Z,52.99
2022-10-11T13:06:27.060Z,52.84
2022-10-11T13:09:02.761Z,52.75
2022-10-11T13:11:58.996Z,53.48
2022-10-11T13:14:27.646Z,54.09
2022-10-11T13:17:03.647Z,54.31
2022-10-11T13:19:32.635Z,53.88
2022-10-11T13:22:03.160Z,53.63
2022-10-11T13:24:37.948Z,53.35
2022-10-11T13:27:05.669Z,53.15
2022-10-11T13:29:41.478Z,53.04
2022-10-11T13:32:14.804Z,53.02
2022-10-11T13:34:45.301Z,52.78
2022-10-11T13:37:21.566Z,52.68
2022-10-11T13:39:51.435Z,52.84
2022-10-11T13:42:20.303Z,52.70
2022-10-11T13:44:47.435Z,52.56
2022-10-11T13:47:17.409Z,52.60
2022-10-11T13:49:46.505Z,52.43
2022-10-11T13:52:22.981Z,52.49
2022-10-11T13:54:58.951Z,52.71
2022-10-11T13:57:33.550Z,53.03
2022-10-11T14:00:02.573Z,53.36
2022-10-11T14:02:30.245Z,53.95
2022-10-11T14:04:57.625Z,54.30
2022-10-11T14:07:38.475Z,54.35
2022-10-11T14:10:06.599Z,54.64
2022-10-11T14:12:39.671Z,54.88
2022-10-11T14:15:24.074Z,54.72
2022-10-11T14:17:51.422Z,54.81
2022-10-11T14:20:21.740Z,54.62
2022-10-11T14:22:52.979Z,55.00
2022-10-11T14:25:20.754Z,55.05
2022-10-11T14:27:48.352Z,55.44
2022-10-11T14:30:27.368Z,56.11
2022-10-11T14:32:56.644Z,56.40
2022-10-11T14:35:28.857Z,57.11
2022-10-11T14:37:55.871Z,57.56
2022-10-11T14:40:27.048Z,57.94
2022-10-11T14:42:54.370Z,57.92
2022-10-11T14:45:21.426Z,58.16
2022-10-11T14:47:49.157Z,58.75
2022-10-11T14:50:40.789Z,58.85
2022-10-11T14:53:08.910Z,59.09
2022-10-11T14:55:37.815Z,59.74
2022-10-11T14:58:05.649Z,60.01
2022-10-11T15:00:33.079Z,60.44
2022-10-11T15:03:00.407Z,60.80
2022-10-11T15:05:33.870Z,61.11
2022-10-11T15:08:05.173Z,61.13
2022-10-11T15:10:39.421Z,61.44
2022-10-11T15:13:07.397Z,61.58
2022-10-11T15:15:36.941Z,61.58
2022-10-11T15:18:07.281Z,61.78
2022-10-11T15:20:39.758Z,62.10
2022-10-11T15:23:09.669Z,62.24
2022-10-11T15:25:38.338Z,62.33
2022-10-11T15:28:06.085Z,62.45
2022-10-11T15:30:41.111Z,62.61
2022-10-11T15:33:08.613Z,62.91
2022-10-11T15:35:35.220Z,62.88
2022-10-11T15:38:02.036Z,63.12
2022-10-11T15:40:36.969Z,63.31
2022-10-11T15:43:04.639Z,63.25
2022-10-11T15:45:31.713Z,63.64
2022-10-11T15:47:58.812Z,63.91
2022-10-11T15:50:34.765Z,64.26
2022-10-11T15:53:05.603Z,64.52
2022-10-11T15:55:34.536Z,64.45
2022-10-11T15:58:01.730Z,64.62
2022-10-11T16:00:29.091Z,64.76
2022-10-11T16:02:57.462Z,64.99
2022-10-11T16:05:26.405Z,65.01
2022-10-11T16:07:53.896Z,65.07
2022-10-11T16:10:21.407Z,65.61
2022-10-11T16:12:49.084Z,65.68
2022-10-11T16:15:16.929Z,66.21
2022-10-11T16:17:43.636Z,66.41
2022-10-11T16:20:10.354Z,66.11
2022-10-11T16:22:37.322Z,66.17
2022-10-11T16:25:05.007Z,66.48
2022-10-11T16:27:32.550Z,66.66
2022-10-11T16:30:01.004Z,66.67
2022-10-11T16:32:28.113Z,66.70
2022-10-11T16:34:54.969Z,67.25
2022-10-11T16:37:21.660Z,67.40
2022-10-11T16:39:48.260Z,67.39
2022-10-11T16:42:15.074Z,67.43
2022-10-11T16:44:41.722Z,67.46
2022-10-11T16:47:08.428Z,67.43
2022-10-11T16:49:35.518Z,67.41
2022-10-11T16:52:03.928Z,67.43
2022-10-11T16:54:32.038Z,67.66
2022-10-11T16:56:59.621Z,67.77
2022-10-11T16:59:27.001Z,67.68
2022-10-11T17:01:54.083Z,67.83
2022-10-11T17:04:21.284Z,68.10
2022-10-11T17:06:48.054Z,68.04
2022-10-11T17:09:15.947Z,68.15
2022-10-11T17:11:43.495Z,68.28
2022-10-11T17:14:12.780Z,68.20
2022-10-11T17:16:39.740Z,68.36
2022-10-11T17:19:20.219Z,68.57
2022-10-11T17:21:46.827Z,68.69
2022-10-11T17:24:13.530Z,68.69
2022-10-11T17:26:40.361Z,68.76
2022-10-11T17:29:07.017Z,69.03
2022-10-11T17:31:33.846Z,69.12
2022-10-11T17:34:01.514Z,69.32
2022-10-11T17:36:36.187Z,69.51
2022-10-11T17:39:09.545Z,69.44
2022-10-11T17:41:36.723Z,69.30
2022-10-11T17:44:04.413Z,69.58
2022-10-11T17:46:34.236Z,69.65
2022-10-11T17:49:04.857Z,69.41
2022-10-11T17:51:32.891Z,69.55
2022-10-11T17:53:59.617Z,69.62
2022-10-11T17:56:30.357Z,69.63
2022-10-11T17:58:59.618Z,69.92
2022-10-11T18:01:28.482Z,69.93
2022-10-11T18:04:04.266Z,69.95
2022-10-11T18:06:33.955Z,70.06
2022-10-11T18:09:02.493Z,70.17
2022-10-11T18:11:30.304Z,70.23
2022-10-11T18:13:56.931Z,70.08
2022-10-11T18:16:28.764Z,70.44
2022-10-11T18:18:59.577Z,70.66
2022-10-11T18:21:31.356Z,70.27
2022-10-11T18:24:02.822Z,70.43
2022-10-11T18:26:30.616Z,70.34
2022-10-11T18:28:58.585Z,70.53
2022-10-11T18:31:27.926Z,70.77
2022-10-11T18:33:55.379Z,71.00
2022-10-11T18:36:24.494Z,71.13
2022-10-11T18:38:56.918Z,71.31
2022-10-11T18:41:30.631Z,71.17
2022-10-11T18:44:00.594Z,70.97
2022-10-11T18:46:27.957Z,71.04
2022-10-11T18:48:56.478Z,71.07
2022-10-11T18:51:32.408Z,71.07
2022-10-11T18:53:59.490Z,71.08
2022-10-11T18:56:28.167Z,71.16
2022-10-11T18:58:56.836Z,71.27
2022-10-11T19:01:29.150Z,71.15
2022-10-11T19:03:57.753Z,71.43
2022-10-11T19:06:27.866Z,71.47
2022-10-11T19:08:59.234Z,71.46
2022-10-11T19:11:25.903Z,71.45
2022-10-11T19:14:06.641Z,71.51
2022-10-11T19:16:35.381Z,71.51
2022-10-11T19:19:02.483Z,71.79
2022-10-11T19:21:29.303Z,71.68
2022-10-11T19:23:56.918Z,71.57
2022-10-11T19:26:30.134Z,71.80
2022-10-11T19:28:59.412Z,71.80
2022-10-11T19:31:26.665Z,71.79
2022-10-11T19:33:54.007Z,71.60
2022-10-11T19:36:21.089Z,71.75
2022-10-11T19:38:49.450Z,71.86
2022-10-11T19:41:18.719Z,71.70
2022-10-11T19:43:46.701Z,71.68
2022-10-11T19:46:20.196Z,71.67
2022-10-11T19:48:51.607Z,71.50
2022-10-11T19:51:22.089Z,71.85
2022-10-11T19:53:54.391Z,71.79
2022-10-11T19:56:21.155Z,72.12
2022-10-11T19:58:47.817Z,71.97
2022-10-11T20:01:18.021Z,72.07
2022-10-11T20:03:50.661Z,72.18
2022-10-11T20:06:20.180Z,72.16
2022-10-11T20:08:59.819Z,72.12
2022-10-11T20:11:31.719Z,72.16
2022-10-11T20:13:58.596Z,72.09
2022-10-11T20:16:27.928Z,72.21
2022-10-11T20:18:58.584Z,72.22
2022-10-11T20:21:27.906Z,72.04
2022-10-11T20:23:58.829Z,72.30
2022-10-11T20:26:27.210Z,72.25
2022-10-11T20:28:56.186Z,72.11
2022-10-11T20:31:33.251Z,72.19
2022-10-11T20:34:02.275Z,72.04
2022-10-11T20:36:30.268Z,71.90
2022-10-11T20:38:58.846Z,72.11
2022-10-11T20:41:28.532Z,72.09
2022-10-11T20:43:57.669Z,72.20
2022-10-11T20:46:27.083Z,72.12
2022-10-11T20:49:01.931Z,72.22
2022-10-11T20:51:30.782Z,72.27
2022-10-11T20:53:58.866Z,71.89
2022-10-11T20:56:25.700Z,72.32
2022-10-11T20:58:55.029Z,72.09
2022-10-11T21:01:28.440Z,72.21
2022-10-11T21:03:57.772Z,72.01
2022-10-11T21:06:24.706Z,72.12
2022-10-11T21:08:51.470Z,72.11
2022-10-11T21:11:18.467Z,72.10
2022-10-11T21:13:45.215Z,72.12
2022-10-11T21:16:16.491Z,72.09
2022-10-11T21:18:43.863Z,72.41
2022-10-11T21:21:13.430Z,71.97
2022-10-11T21:23:40.591Z,72.34
2022-10-11T21:26:10.454Z,72.60
2022-10-11T21:28:37.930Z,72.59
2022-10-11T21:31:08.482Z,72.72
2022-10-11T21:33:35.985Z,72.74
2022-10-11T21:36:11.044Z,72.61
2022-10-11T21:38:38.522Z,72.73
2022-10-11T21:41:07.102Z,72.82
2022-10-11T21:43:36.017Z,72.80
2022-10-11T21:46:24.964Z,72.73
2022-10-11T21:48:59.425Z,72.80
2022-10-11T21:51:30.201Z,72.78
2022-10-11T21:53:59.556Z,72.84
2022-10-11T21:56:27.334Z,72.98
2022-10-11T21:58:54.266Z,72.89
2022-10-11T22:01:21.527Z,72.70
2022-10-11T22:03:49.007Z,72.77
2022-10-11T22:06:16.765Z,72.89
2022-10-11T22:08:43.466Z,72.63
2022-10-11T22:11:10.712Z,72.89
2022-10-11T22:13:38.469Z,73.03
2022-10-11T22:16:10.905Z,73.07
2022-10-11T22:18:38.747Z,73.03
2022-10-11T22:21:16.330Z,73.19
2022-10-11T22:23:46.040Z,73.28
2022-10-11T22:26:22.086Z,72.98
2022-10-11T22:28:49.440Z,73.27
2022-10-11T22:31:19.368Z,73.35
2022-10-11T22:33:46.215Z,73.00
2022-10-11T22:36:13.975Z,73.16
2022-10-11T22:38:42.238Z,73.01
2022-10-11T22:41:09.924Z,73.08
2022-10-11T22:43:36.989Z,73.07
2022-10-11T22:46:05.043Z,73.05
2022-10-11T22:48:31.876Z,72.95
2022-10-11T22:50:59.961Z,73.22
2022-10-11T22:53:26.569Z,73.20
2022-10-11T22:55:53.214Z,73.22
2022-10-11T22:58:19.936Z,73.53
2022-10-11T23:00:46.544Z,73.22
2022-10-11T23:03:17.010Z,73.70
2022-10-11T23:05:43.931Z,73.34
2022-10-11T23:08:10.625Z,73.83
2022-10-11T23:10:40.793Z,73.60
2022-10-11T23:13:07.558Z,73.84
2022-10-11T23:15:34.262Z,73.98
2022-10-11T23:18:01.006Z,73.98
2022-10-11T23:20:27.999Z,73.93
2022-10-11T23:22:54.745Z,74.04
2022-10-11T23:25:21.487Z,73.81
2022-10-11T23:27:48.264Z,74.30
2022-10-11T23:30:15.348Z,74.05
2022-10-11T23:32:42.134Z,74.18
2022-10-11T23:35:09.003Z,73.96
2022-10-11T23:37:35.759Z,73.97
2022-10-11T23:40:02.807Z,74.22
2022-10-11T23:42:29.471Z,74.32
2022-10-11T23:44:56.105Z,74.48
2022-10-11T23:47:22.820Z,74.32
2022-10-11T23:49:49.547Z,74.53
2022-10-11T23:52:16.205Z,74.44
2022-10-11T23:54:43.040Z,74.69
2022-10-11T23:57:09.838Z,74.72
2022-10-11T23:59:36.397Z,74.68
